Time,TemperatureF,DewpointF,PressureIn,WindDirection,WindDirectionDegrees,WindSpeedMPH,WindSpeedGustMPH,Humidity,HourlyPrecipIn,Conditions,Clouds,dailyrainin,SolarRadiationWatts/m^2,SoftwareType,DateUTC
2013-07-01 06:25:00,57.9,37.3,30.03,NW,315,0.0,0.0,46,0.00,,---,0.00,0.00,VWS V14.01,2013-07-01 11:25:00,
2013-07-01 06:26:00,57.9,37.3,30.03,WNW,292,0.0,0.0,46,0.00,,---,0.00,0.00,VWS V14.01,2013-07-01 11:26:00,
2013-07-01 06:27:00,57.9,37.3,30.03,NNW,338,0.0,0.0,46,0.00,,---,0.00,0.00,VWS V14.01,2013-07-01 11:27:00,
2013-07-01 06:29:00,57.9,37.3,30.03,NNW,338,0.0,0.0,46,0.00,,---,0.00,0.00,VWS V14.01,2013-07-01 11:29:00,
2013-07-01 06:33:00,57.9,37.3,30.03,NNW,338,0.0,0.0,46,0.00,,---,0.00,0.00,VWS V14.01,2013-07-01 11:33:00,
2013-07-01 06:38:00,58.1,38.0,30.03,NNW,338,2.5,3.4,47,0.00,,---,0.00,0.00,VWS V14.01,2013-07-01 11:38:00,
2013-07-01 06:44:00,58.5,38.3,30.03,NNW,338,3.6,5.8,47,0.00,,---,0.00,0.00,VWS V14.01,2013-07-01 11:44:00,
2013-07-01 06:49:00,58.6,38.5,30.03,North,0,3.4,5.6,47,0.00,,---,0.00,0.00,VWS V14.01,2013-07-01 11:49:00,
2013-07-01 06:55:00,59.0,38.8,30.03,North,0,3.8,3.8,47,0.00,,---,0.00,0.00,VWS V14.01,2013-07-01 11:55:00,
2013-07-01 07:00:00,59.2,38.4,30.03,NNE,22,2.7,3.8,46,0.00,,---,0.00,0.00,VWS V14.01,2013-07-01 12:00:00,
2013-07-01 07:05:00,59.4,39.2,30.03,NNW,338,3.6,3.6,47,0.00,,---,0.00,0.00,VWS V14.01,2013-07-01 12:05:00,
2013-07-01 07:10:00,59.4,39.2,30.03,North,0,1.6,3.4,47,0.00,,---,0.00,0.00,VWS V14.01,2013-07-01 12:10:00,
2013-07-01 07:15:00,59.9,39.1,30.03,NNW,338,0.0,0.0,46,0.00,,---,0.00,0.00,VWS V14.01,2013-07-01 12:15:00,
2013-07-01 07:21:00,60.1,39.2,30.00,NNW,338,3.8,3.8,46,0.00,,---,0.00,0.00,VWS V14.01,2013-07-01 12:21:00,
2013-07-01 07:29:00,0.0,0.0,30.00,North,0,3.1,3.1,0,0.00,,---,0.00,0.00,VWS V14.01,2013-07-01 12:29:00,
2013-07-01 07:35:00,0.0,0.0,30.00,NNW,338,4.0,4.0,0,0.00,,---,0.00,0.00,VWS V14.01,2013-07-01 12:35:00,
2013-07-01 07:41:00,61.7,40.2,30.00,NE,45,2.7,3.1,45,0.00,,---,0.00,0.00,VWS V14.01,2013-07-01 12:41:00,
2013-07-01 07:47:00,62.2,40.7,30.00,NNE,22,2.0,2.5,45,0.00,,---,0.00,0.00,VWS V14.01,2013-07-01 12:47:00,
2013-07-01 07:53:00,63.0,40.7,30.00,NNW,338,2.0,2.0,44,0.00,,---,0.00,0.00,VWS V14.01,2013-07-01 12:53:00,
2013-07-01 07:58:00,63.0,40.7,30.00,NE,45,3.4,3.4,44,0.00,,---,0.00,0.00,VWS V14.01,2013-07-01 12:58:00,
2013-07-01 08:04:00,63.0,40.7,30.00,NNE,22,3.1,3.8,44,0.00,,---,0.00,0.00,VWS V14.01,2013-07-01 13:04:00,
2013-07-01 08:09:00,64.8,39.9,30.03,NNW,338,5.6,5.8,40,0.00,,---,0.00,0.00,VWS V14.01,2013-07-01 13:09:00,
2013-07-01 08:14:00,64.8,39.9,30.03,NNE,22,2.5,2.5,40,0.00,,---,0.00,0.00,VWS V14.01,2013-07-01 13:14:00,
2013-07-01 08:20:00,66.0,40.4,30.03,North,0,1.3,2.9,39,0.00,,---,0.00,0.00,VWS V14.01,2013-07-01 13:20:00,
2013-07-01 08:25:00,66.0,40.4,30.03,NNE,22,5.4,6.0,39,0.00,,---,0.00,0.00,VWS V14.01,2013-07-01 13:25:00,
2013-07-01 08:30:00,66.7,39.7,30.03,NNE,22,3.6,3.6,37,0.00,,---,0.00,0.00,VWS V14.01,2013-07-01 13:30:00,
2013-07-01 08:35:00,67.1,38.6,30.03,NNE,22,6.3,6.3,35,0.00,,---,0.00,0.00,VWS V14.01,2013-07-01 13:35:00,
2013-07-01 08:41:00,67.1,38.6,30.03,NNE,22,7.2,7.2,35,0.00,,---,0.00,0.00,VWS V14.01,2013-07-01 13:41:00,
2013-07-01 08:47:00,67.3,38.0,30.03,North,0,3.8,4.3,34,0.00,,---,0.00,0.00,VWS V14.01,2013-07-01 13:47:00,
2013-07-01 08:52:00,67.3,38.0,30.06,NNE,22,2.7,2.7,34,0.00,,---,0.00,0.00,VWS V14.01,2013-07-01 13:52:00,
2013-07-01 08:58:00,67.6,38.3,30.06,North,0,4.0,4.0,34,0.00,,---,0.00,0.00,VWS V14.01,2013-07-01 13:58:00,
2013-07-01 09:04:00,67.6,38.3,30.06,NNE,22,3.6,3.6,34,0.00,,---,0.00,0.00,VWS V14.01,2013-07-01 14:04:00,
2013-07-01 09:10:00,69.1,39.6,30.06,NE,45,5.4,6.3,34,0.00,,---,0.00,0.00,VWS V14.01,2013-07-01 14:10:00,
2013-07-01 09:16:00,69.3,39.0,30.06,NNE,22,2.0,7.8,33,0.00,,---,0.00,0.00,VWS V14.01,2013-07-01 14:16:00,
2013-07-01 09:21:00,69.8,38.6,30.06,North,0,2.9,5.4,32,0.00,,---,0.00,0.00,VWS V14.01,2013-07-01 14:21:00,
2013-07-01 09:26:00,70.3,39.1,30.06,NNE,22,4.3,4.3,32,0.00,,---,0.00,0.00,VWS V14.01,2013-07-01 14:26:00,
2013-07-01 09:31:00,70.7,39.4,30.06,NNE,22,8.7,8.7,32,0.00,,---,0.00,0.00,VWS V14.01,2013-07-01 14:31:00,
2013-07-01 09:36:00,70.7,37.8,30.06,NNE,22,4.9,4.9,30,0.00,,---,0.00,0.00,VWS V14.01,2013-07-01 14:36:00,
2013-07-01 09:42:00,71.1,36.3,30.06,NNW,338,3.1,3.1,28,0.00,,---,0.00,0.00,VWS V14.01,2013-07-01 14:42:00,
2013-07-01 09:48:00,71.1,36.3,30.06,NNE,22,3.6,3.8,28,0.00,,---,0.00,0.00,VWS V14.01,2013-07-01 14:48:00,
2013-07-01 09:53:00,71.1,36.3,30.06,NNE,22,3.6,3.6,28,0.00,,---,0.00,0.00,VWS V14.01,2013-07-01 14:53:00,
2013-07-01 09:58:00,72.0,33.2,30.06,NNE,22,3.8,3.8,24,0.00,,---,0.00,0.00,VWS V14.01,2013-07-01 14:58:00,
2013-07-01 10:04:00,72.1,35.4,30.06,NNW,338,3.4,3.4,26,0.00,,---,0.00,0.00,VWS V14.01,2013-07-01 15:04:00,
2013-07-01 10:10:00,72.5,33.7,30.06,NW,315,6.0,6.5,24,0.00,,---,0.00,0.00,VWS V14.01,2013-07-01 15:10:00,
2013-07-01 10:15:00,72.9,35.0,30.06,NNW,338,1.6,1.6,25,0.00,,---,0.00,0.00,VWS V14.01,2013-07-01 15:15:00,
2013-07-01 10:20:00,73.0,34.1,30.06,North,0,2.5,3.1,24,0.00,,---,0.00,0.00,VWS V14.01,2013-07-01 15:20:00,
2013-07-01 15:45:00,80.4,28.6,30.03,NNE,22,5.4,5.4,15,0.00,,---,0.00,0.00,VWS V14.01,2013-07-01 20:45:00,
2013-07-01 15:51:00,81.1,27.5,30.03,North,0,6.3,8.5,14,0.00,,---,0.00,0.00,VWS V14.01,2013-07-01 20:51:00,
2013-07-01 15:56:00,81.1,27.5,30.03,North,0,6.3,6.3,14,0.00,,---,0.00,0.00,VWS V14.01,2013-07-01 20:56:00,
2013-07-01 16:01:00,81.5,27.8,30.03,NNW,338,4.3,4.3,14,0.00,,---,0.00,0.00,VWS V14.01,2013-07-01 21:01:00,
2013-07-01 16:07:00,80.8,27.2,30.03,North,0,2.7,5.6,14,0.00,,---,0.00,0.00,VWS V14.01,2013-07-01 21:07:00,
2013-07-01 16:12:00,80.8,27.2,30.03,NE,45,2.9,2.9,14,0.00,,---,0.00,0.00,VWS V14.01,2013-07-01 21:12:00,
2013-07-01 16:18:00,81.7,27.9,30.03,NNW,338,2.7,2.7,14,0.00,,---,0.00,0.00,VWS V14.01,2013-07-01 21:18:00,
2013-07-01 16:24:00,81.5,27.8,30.03,ENE,68,8.1,8.1,14,0.00,,---,0.00,0.00,VWS V14.01,2013-07-01 21:24:00,
2013-07-01 16:30:00,81.3,27.6,30.03,NNE,22,2.7,6.0,14,0.00,,---,0.00,0.00,VWS V14.01,2013-07-01 21:30:00,
2013-07-01 16:36:00,81.1,27.5,30.03,NNE,22,6.0,6.5,14,0.00,,---,0.00,0.00,VWS V14.01,2013-07-01 21:36:00,
2013-07-01 16:42:00,81.5,27.8,30.03,North,0,6.5,8.5,14,0.00,,---,0.00,0.00,VWS V14.01,2013-07-01 21:42:00,
2013-07-01 16:48:00,81.5,27.8,30.03,ENE,68,7.6,7.6,14,0.00,,---,0.00,0.00,VWS V14.01,2013-07-01 21:48:00,
2013-07-01 16:53:00,81.5,27.8,30.03,WNW,292,4.9,4.9,14,0.00,,---,0.00,0.00,VWS V14.01,2013-07-01 21:53:00,
2013-07-01 16:58:00,80.1,28.3,30.03,NNE,22,2.5,6.5,15,0.00,,---,0.00,0.00,VWS V14.01,2013-07-01 21:58:00,
2013-07-01 17:03:00,79.7,28.0,30.03,NNE,22,4.0,4.0,15,0.00,,---,0.00,0.00,VWS V14.01,2013-07-01 22:03:00,
2013-07-01 17:09:00,79.7,28.0,30.03,NNW,338,3.8,4.0,15,0.00,,---,0.00,0.00,VWS V14.01,2013-07-01 22:09:00,
2013-07-01 17:15:00,80.8,27.2,30.03,North,0,6.0,6.0,14,0.00,,---,0.00,0.00,VWS V14.01,2013-07-01 22:15:00,
2013-07-01 17:21:00,81.3,27.6,30.03,NNE,22,4.3,5.6,14,0.00,,---,0.00,0.00,VWS V14.01,2013-07-01 22:21:00,
2013-07-01 17:26:00,81.3,27.6,30.03,NNW,338,8.7,8.7,14,0.00,,---,0.00,0.00,VWS V14.01,2013-07-01 22:26:00,
2013-07-01 17:32:00,81.1,27.5,30.03,NNW,338,8.7,8.7,14,0.00,,---,0.00,0.00,VWS V14.01,2013-07-01 22:32:00,
2013-07-01 17:38:00,81.1,27.5,30.03,NNE,22,2.7,8.7,14,0.00,,---,0.00,0.00,VWS V14.01,2013-07-01 22:38:00,
2013-07-01 17:44:00,80.8,27.2,30.03,NE,45,6.5,6.5,14,0.00,,---,0.00,0.00,VWS V14.01,2013-07-01 22:44:00,
2013-07-01 17:50:00,80.4,28.6,30.03,NNE,22,3.1,3.8,15,0.00,,---,0.00,0.00,VWS V14.01,2013-07-01 22:50:00,
2013-07-01 17:56:00,80.6,27.0,30.00,ENE,68,4.9,9.4,14,0.00,,---,6.61,0.00,VWS V14.01,2013-07-01 22:56:00,
2013-07-01 18:02:00,80.4,28.6,30.00,NNW,338,4.0,4.0,15,0.00,,---,6.61,0.00,VWS V14.01,2013-07-01 23:02:00,
2013-07-01 18:08:00,80.4,28.6,30.03,NNE,22,4.5,4.5,15,0.00,,---,6.61,0.00,VWS V14.01,2013-07-01 23:08:00,
2013-07-01 18:14:00,80.6,27.0,30.03,NNE,22,3.4,3.4,14,0.00,,---,6.61,0.00,VWS V14.01,2013-07-01 23:14:00,
2013-07-01 18:20:00,80.6,27.0,30.03,NE,45,2.9,3.4,14,0.00,,---,6.61,0.00,VWS V14.01,2013-07-01 23:20:00,